createdAt,value
2019-04-01T00:01:58.849Z,5.51
2019-04-01T00:04:29.617Z,5.50
2019-04-01T00:07:00.359Z,5.58
2019-04-01T00:09:30.871Z,5.58
2019-04-01T00:12:02.847Z,5.55
2019-04-01T00:14:33.409Z,5.67
2019-04-01T00:17:03.746Z,5.71
2019-04-01T00:19:34.049Z,5.94
2019-04-01T00:22:04.922Z,5.91
2019-04-01T00:24:35.235Z,5.76
2019-04-01T00:27:05.791Z,5.81
2019-04-01T00:29:36.475Z,5.88
2019-04-01T00:32:06.809Z,5.92
2019-04-01T00:34:37.184Z,5.90
2019-04-01T00:37:07.461Z,5.88
2019-04-01T00:39:37.893Z,5.80
2019-04-01T00:42:15.989Z,5.73
2019-04-01T00:44:46.572Z,5.78
2019-04-01T00:47:16.852Z,5.81
2019-04-01T00:49:47.642Z,5.91
2019-04-01T00:52:18.499Z,5.86
2019-04-01T00:54:48.793Z,5.88
2019-04-01T00:57:19.350Z,5.98
2019-04-01T00:59:49.751Z,6.07
2019-04-01T01:02:20.067Z,5.92
2019-04-01T01:04:50.355Z,5.55
2019-04-01T01:07:20.930Z,5.73
2019-04-01T01:09:51.589Z,5.74
2019-04-01T01:12:22.107Z,5.76
2019-04-01T01:14:52.437Z,5.69
2019-04-01T01:17:23.080Z,6.15
2019-04-01T01:19:53.910Z,6.08
2019-04-01T01:22:24.406Z,6.15
2019-04-01T01:24:55.076Z,6.20
2019-04-01T01:27:25.774Z,6.34
2019-04-01T01:29:56.678Z,6.26
2019-04-01T01:32:27.005Z,6.09
2019-04-01T01:34:57.476Z,5.92
2019-04-01T01:37:28.742Z,5.89
2019-04-01T01:39:59.314Z,5.96
2019-04-01T01:42:29.597Z,5.69
2019-04-01T01:45:00.420Z,5.55
2019-04-01T01:47:30.984Z,5.38
2019-04-01T01:50:02.334Z,5.18
2019-04-01T01:52:33.888Z,5.22
2019-04-01T01:55:04.608Z,5.07
2019-04-01T01:57:35.888Z,4.97
2019-04-01T02:00:07.469Z,5.02
2019-04-01T02:02:38.187Z,5.13
2019-04-01T02:05:08.606Z,4.99
2019-04-01T02:07:39.257Z,4.88
2019-04-01T02:10:09.825Z,4.90
2019-04-01T02:12:40.332Z,4.82
2019-04-01T02:15:11.205Z,4.85
2019-04-01T02:17:41.493Z,4.79
2019-04-01T02:20:12.021Z,4.80
2019-04-01T02:22:42.630Z,4.89
2019-04-01T02:25:12.937Z,4.84
2019-04-01T02:27:43.267Z,4.92
2019-04-01T02:30:14.131Z,4.78
2019-04-01T02:32:45.464Z,4.84
2019-04-01T02:35:15.730Z,4.86
2019-04-01T02:37:46.437Z,4.59
2019-04-01T02:40:16.770Z,4.45
2019-04-01T02:42:47.473Z,4.64
2019-04-01T02:45:17.771Z,4.52
2019-04-01T02:47:48.099Z,4.37
2019-04-01T02:50:18.621Z,4.47
2019-04-01T02:52:49.153Z,4.38
2019-04-01T02:55:19.462Z,4.49
2019-04-01T02:57:50.220Z,4.49
2019-04-01T03:00:20.612Z,4.49
2019-04-01T03:02:50.910Z,4.46
2019-04-01T03:05:21.326Z,4.37
2019-04-01T03:07:51.919Z,4.47
2019-04-01T03:10:22.342Z,4.68
2019-04-01T03:12:52.875Z,4.74
2019-04-01T03:15:23.173Z,4.39
2019-04-01T03:17:53.890Z,4.36
2019-04-01T03:20:24.568Z,4.25
2019-04-01T03:22:54.853Z,4.14
2019-04-01T03:25:25.561Z,4.15
2019-04-01T03:27:56.305Z,4.08
2019-04-01T03:30:26.629Z,4.02
2019-04-01T03:32:56.962Z,3.97
2019-04-01T03:35:27.709Z,3.94
2019-04-01T03:37:58.087Z,4.01
2019-04-01T03:40:28.387Z,4.04
2019-04-01T03:42:59.134Z,4.38
2019-04-01T03:45:29.566Z,4.17
2019-04-01T03:47:59.883Z,4.38
2019-04-01T03:50:31.699Z,4.46
2019-04-01T03:53:02.241Z,4.62
2019-04-01T03:55:32.570Z,4.61
2019-04-01T03:58:03.353Z,4.69
2019-04-01T04:00:33.747Z,4.82
2019-04-01T04:03:04.052Z,4.86
2019-04-01T04:05:34.859Z,4.82
2019-04-01T04:08:05.578Z,4.68
2019-04-01T04:10:35.902Z,4.59
2019-04-01T04:13:06.416Z,4.34
2019-04-01T04:15:36.791Z,4.45
2019-04-01T04:18:07.619Z,4.32
2019-04-01T04:20:38.095Z,4.02
2019-04-01T04:23:08.553Z,3.85
2019-04-01T04:25:39.280Z,3.95
2019-04-01T04:28:10.065Z,4.12
2019-04-01T04:30:40.360Z,4.37
2019-04-01T04:33:10.733Z,4.42
2019-04-01T04:35:41.548Z,4.35
2019-04-01T04:38:11.890Z,4.32
2019-04-01T04:40:42.231Z,4.47
2019-04-01T04:43:12.927Z,4.65
2019-04-01T04:45:43.356Z,4.57
2019-04-01T04:48:15.217Z,4.82
2019-04-01T04:50:45.515Z,4.71
2019-04-01T04:53:15.931Z,4.66
2019-04-01T04:55:46.591Z,4.69
2019-04-01T04:58:16.926Z,4.70
2019-04-01T05:00:47.249Z,4.70
2019-04-01T05:03:18.039Z,4.81
2019-04-01T05:05:48.410Z,4.79
2019-04-01T05:08:18.751Z,4.82
2019-04-01T05:10:49.432Z,4.94
2019-04-01T05:13:20.699Z,5.16
2019-04-01T05:15:50.976Z,5.33
2019-04-01T05:18:21.794Z,5.52
2019-04-01T05:20:52.765Z,5.79
2019-04-01T05:23:25.136Z,5.94
2019-04-01T05:25:55.839Z,5.94
2019-04-01T05:28:28.054Z,6.21
2019-04-01T05:31:00.232Z,6.47
2019-04-01T05:33:32.568Z,6.64
2019-04-01T05:36:04.721Z,6.75
2019-04-01T05:38:35.221Z,6.86
2019-04-01T05:41:06.851Z,7.07
2019-04-01T05:43:37.135Z,7.09
2019-04-01T05:46:07.948Z,7.43
2019-04-01T05:48:38.733Z,7.52
2019-04-01T05:51:09.131Z,7.78
2019-04-01T05:53:39.463Z,8.06
2019-04-01T05:56:09.752Z,8.03
2019-04-01T05:58:40.383Z,8.08
2019-04-01T06:01:14.476Z,8.18
2019-04-01T06:03:44.901Z,8.35
2019-04-01T06:06:15.517Z,8.49
2019-04-01T06:08:46.223Z,8.54
2019-04-01T06:11:16.509Z,8.77
2019-04-01T06:13:47.109Z,8.90
2019-04-01T06:16:18.067Z,9.00
2019-04-01T06:18:48.885Z,9.30
2019-04-01T06:21:19.464Z,9.48
2019-04-01T06:23:49.792Z,9.66
2019-04-01T06:26:20.728Z,9.51
2019-04-01T06:28:51.818Z,9.73
2019-04-01T06:31:22.171Z,9.81
2019-04-01T06:33:53.026Z,9.88
2019-04-01T06:36:23.734Z,9.98
2019-04-01T06:38:54.055Z,10.34
2019-04-01T06:41:24.832Z,10.37
2019-04-01T06:43:55.312Z,10.50
2019-04-01T06:46:25.647Z,10.67
2019-04-01T06:48:55.975Z,10.83
2019-04-01T06:51:26.631Z,11.20
2019-04-01T06:53:56.967Z,11.25
2019-04-01T06:56:27.955Z,11.39
2019-04-01T06:58:58.298Z,11.71
2019-04-01T07:01:28.822Z,11.41
2019-04-01T07:03:59.703Z,11.63
2019-04-01T07:06:29.982Z,11.80
2019-04-01T07:09:00.354Z,11.84
2019-04-01T07:11:32.745Z,11.92
2019-04-01T07:14:03.950Z,12.31
2019-04-01T07:16:34.232Z,12.35
2019-04-01T07:19:04.736Z,11.79
2019-04-01T07:21:35.390Z,12.22
2019-04-01T07:24:05.900Z,12.71
2019-04-01T07:26:36.992Z,12.74
2019-04-01T07:29:07.380Z,13.17
2019-04-01T07:31:39.388Z,13.19
2019-04-01T07:34:09.673Z,13.27
2019-04-01T07:36:40.044Z,13.31
2019-04-01T07:39:10.828Z,13.39
2019-04-01T07:41:41.452Z,13.34
2019-04-01T07:44:11.955Z,13.44
2019-04-01T07:46:44.095Z,13.76
2019-04-01T07:49:14.859Z,13.72
2019-04-01T07:51:45.177Z,13.76
2019-04-01T07:54:18.403Z,14.04
2019-04-01T07:56:48.191Z,14.04
2019-04-01T07:59:18.857Z,14.02
2019-04-01T08:01:52.714Z,14.36
2019-04-01T08:04:21.656Z,14.52
2019-04-01T08:06:52.400Z,14.61
2019-04-01T08:09:22.822Z,14.84
2019-04-01T08:11:53.693Z,14.99
2019-04-01T08:14:24.042Z,14.86
2019-04-01T08:16:54.344Z,14.86
2019-04-01T08:19:25.126Z,15.08
2019-04-01T08:21:55.874Z,15.37
2019-04-01T08:24:26.199Z,15.45
2019-04-01T08:26:56.891Z,15.59
2019-04-01T08:29:30.379Z,15.88
2019-04-01T08:31:59.725Z,16.33
2019-04-01T08:34:30.079Z,16.27
2019-04-01T08:37:00.518Z,16.38
2019-04-01T08:39:31.883Z,16.47
2019-04-01T08:42:03.152Z,16.79
2019-04-01T08:44:33.520Z,16.73
2019-04-01T08:47:04.230Z,16.86
2019-04-01T08:49:35.072Z,17.12
2019-04-01T08:52:05.412Z,17.26
2019-04-01T08:54:36.151Z,17.26
2019-04-01T08:57:06.967Z,17.49
2019-04-01T08:59:37.568Z,17.49
2019-04-01T09:02:17.803Z,17.78
2019-04-01T09:04:41.014Z,18.07
2019-04-01T09:07:11.875Z,18.30
2019-04-01T09:09:45.431Z,18.30
2019-04-01T09:12:16.456Z,18.41
2019-04-01T09:14:47.440Z,18.31
2019-04-01T09:17:18.274Z,18.31
2019-04-01T09:19:48.620Z,18.45
2019-04-01T09:22:19.114Z,18.46
2019-04-01T09:24:49.749Z,18.49
2019-04-01T09:27:20.041Z,18.53
2019-04-01T09:29:51.705Z,18.65
2019-04-01T09:32:22.492Z,19.10
2019-04-01T09:34:53.802Z,19.09
2019-04-01T09:37:24.173Z,19.11
2019-04-01T09:39:54.454Z,19.25
2019-04-01T09:42:24.897Z,19.37
2019-04-01T09:44:55.628Z,19.43
2019-04-01T09:47:25.920Z,19.85
2019-04-01T09:49:56.279Z,20.10
2019-04-01T09:52:26.986Z,20.37
2019-04-01T09:54:57.407Z,20.57
2019-04-01T09:57:27.714Z,20.43
2019-04-01T09:59:58.304Z,20.59
2019-04-01T10:02:31.950Z,20.66
2019-04-01T10:05:00.959Z,21.20
2019-04-01T10:07:32.863Z,21.61
2019-04-01T10:10:03.214Z,21.67
2019-04-01T10:12:33.535Z,22.13
2019-04-01T10:15:04.544Z,22.65
2019-04-01T10:17:35.600Z,22.68
2019-04-01T10:20:07.397Z,22.25
2019-04-01T10:22:37.944Z,22.50
2019-04-01T10:25:09.590Z,22.35
2019-04-01T10:27:40.023Z,21.91
2019-04-01T10:30:11.443Z,21.71
2019-04-01T10:32:42.163Z,22.04
2019-04-01T10:35:12.981Z,21.96
2019-04-01T10:37:43.339Z,21.79
2019-04-01T10:40:14.959Z,22.46
2019-04-01T10:42:45.287Z,22.69
2019-04-01T10:45:16.103Z,22.98
2019-04-01T10:47:46.515Z,22.41
2019-04-01T10:50:17.156Z,22.43
2019-04-01T10:52:47.859Z,22.66
2019-04-01T10:55:18.310Z,23.05
2019-04-01T10:57:48.637Z,23.17
2019-04-01T11:00:19.404Z,24.03
2019-04-01T11:02:50.394Z,24.18
2019-04-01T11:05:21.832Z,23.91
2019-04-01T11:07:53.671Z,24.00
2019-04-01T11:10:24.494Z,24.24
2019-04-01T11:12:54.847Z,24.23
2019-04-01T11:15:25.163Z,24.20
2019-04-01T11:17:55.487Z,24.74
2019-04-01T11:20:26.837Z,24.79
2019-04-01T11:22:57.328Z,24.76
2019-04-01T11:25:27.609Z,25.36
2019-04-01T11:27:58.315Z,25.27
2019-04-01T11:30:29.109Z,25.43
2019-04-01T11:32:59.474Z,24.74
2019-04-01T11:35:30.450Z,24.62
2019-04-01T11:38:01.168Z,24.68
2019-04-01T11:40:31.660Z,24.60
2019-04-01T11:43:04.965Z,24.30
2019-04-01T11:45:34.091Z,24.58
2019-04-01T11:48:05.098Z,24.37
2019-04-01T11:50:35.799Z,24.95
2019-04-01T11:53:06.962Z,25.07
2019-04-01T11:55:37.697Z,25.29
2019-04-01T11:58:08.599Z,25.88
2019-04-01T12:00:39.758Z,25.51
2019-04-01T12:03:10.415Z,25.46
2019-04-01T12:05:42.061Z,25.36
2019-04-01T12:08:12.412Z,25.88
2019-04-01T12:10:42.758Z,25.64
2019-04-01T12:13:13.446Z,25.41
2019-04-01T12:15:43.855Z,25.92
2019-04-01T12:18:14.200Z,26.49
2019-04-01T12:20:44.895Z,26.59
2019-04-01T12:23:15.548Z,26.11
2019-04-01T12:25:45.848Z,25.93
2019-04-01T12:28:16.486Z,25.89
2019-04-01T12:30:47.149Z,26.41
2019-04-01T12:33:18.333Z,26.58
2019-04-01T12:35:49.803Z,26.31
2019-04-01T12:38:20.367Z,26.76
2019-04-01T12:40:50.813Z,26.52
2019-04-01T12:43:23.543Z,27.19
2019-04-01T12:45:54.068Z,26.62
2019-04-01T12:48:25.534Z,27.68
2019-04-01T12:50:56.152Z,27.82
2019-04-01T12:53:26.497Z,25.91
2019-04-01T12:55:57.016Z,27.15
2019-04-01T12:58:27.485Z,27.29
2019-04-01T13:01:00.879Z,28.11
2019-04-01T13:03:30.070Z,27.15
2019-04-01T13:06:00.683Z,26.99
2019-04-01T13:08:31.023Z,26.37
2019-04-01T13:11:01.424Z,25.98
2019-04-01T13:13:33.328Z,26.04
2019-04-01T13:16:03.642Z,26.44
2019-04-01T13:18:33.962Z,26.57
2019-04-01T13:21:04.660Z,26.59
2019-04-01T13:23:35.036Z,26.62
2019-04-01T13:26:05.418Z,27.19
2019-04-01T13:28:35.755Z,27.26
2019-04-01T13:31:06.059Z,27.23
2019-04-01T13:33:36.836Z,27.60
2019-04-01T13:36:07.989Z,27.44
2019-04-01T13:38:38.449Z,27.79
2019-04-01T13:41:13.010Z,27.35
2019-04-01T13:43:42.562Z,27.48
2019-04-01T13:46:12.914Z,27.52
2019-04-01T13:48:56.856Z,27.08
2019-04-01T13:51:16.083Z,27.03
2019-04-01T13:53:46.424Z,27.10
2019-04-01T13:56:16.834Z,27.45
2019-04-01T13:58:47.187Z,27.47
2019-04-01T14:01:17.917Z,27.99
2019-04-01T14:03:48.640Z,28.22
2019-04-01T14:06:18.982Z,28.47
2019-04-01T14:08:51.133Z,28.87
2019-04-01T14:11:21.920Z,29.30
2019-04-01T14:13:52.272Z,29.00
2019-04-01T14:16:22.882Z,28.61
2019-04-01T14:18:53.617Z,28.86
2019-04-01T14:21:23.914Z,28.19
2019-04-01T14:23:54.328Z,28.62
2019-04-01T14:26:24.649Z,28.94
2019-04-01T14:28:55.476Z,28.92
2019-04-01T14:31:26.282Z,28.79
2019-04-01T14:33:56.610Z,29.17
2019-04-01T14:36:27.234Z,29.14
2019-04-01T14:38:57.912Z,28.28
2019-04-01T14:41:28.208Z,28.13
2019-04-01T14:43:58.724Z,28.14
2019-04-01T14:46:29.384Z,27.85
2019-04-01T14:49:00.525Z,27.58
2019-04-01T14:51:32.678Z,27.58
2019-04-01T14:54:03.238Z,27.30
2019-04-01T14:56:33.644Z,27.62
2019-04-01T14:59:04.347Z,27.63
2019-04-01T15:01:34.837Z,27.93
2019-04-01T15:04:05.400Z,27.89
2019-04-01T15:06:36.206Z,28.32
2019-04-01T15:09:09.111Z,28.17
2019-04-01T15:11:41.273Z,28.02
2019-04-01T15:14:13.909Z,27.96
2019-04-01T15:16:44.182Z,27.78
2019-04-01T15:19:14.463Z,27.21
2019-04-01T15:21:47.396Z,27.10
2019-04-01T15:24:17.490Z,26.41
2019-04-01T15:26:47.775Z,26.23
2019-04-01T15:29:18.447Z,25.32
2019-04-01T15:31:48.772Z,25.38
2019-04-01T15:34:19.847Z,25.78
2019-04-01T15:36:50.144Z,25.56
2019-04-01T15:39:20.524Z,25.69
2019-04-01T15:41:51.250Z,25.48
2019-04-01T15:44:21.711Z,25.17
2019-04-01T15:46:52.062Z,24.63
2019-04-01T15:49:22.874Z,23.86
2019-04-01T15:51:53.318Z,23.59
2019-04-01T15:54:23.674Z,23.77
2019-04-01T15:56:54.083Z,23.77
2019-04-01T15:59:24.891Z,23.51
2019-04-01T16:01:55.161Z,23.16
2019-04-01T16:04:25.707Z,23.04
2019-04-01T16:06:56.028Z,23.29
2019-04-01T16:09:26.700Z,23.38
2019-04-01T16:11:57.447Z,23.16
2019-04-01T16:14:27.859Z,22.76
2019-04-01T16:16:59.594Z,22.72
2019-04-01T16:19:30.547Z,22.62
2019-04-01T16:22:00.805Z,22.11
2019-04-01T16:24:31.352Z,22.10
2019-04-01T16:27:02.125Z,22.31
2019-04-01T16:29:33.650Z,22.14
2019-04-01T16:32:03.949Z,21.54
2019-04-01T16:34:35.842Z,21.71
2019-04-01T16:37:06.257Z,21.02
2019-04-01T16:39:36.883Z,21.13
2019-04-01T16:42:07.353Z,20.71
2019-04-01T16:44:37.948Z,20.47
2019-04-01T16:47:08.241Z,20.29
2019-04-01T16:49:39.015Z,19.96
2019-04-01T16:52:09.662Z,19.78
2019-04-01T16:54:40.031Z,19.35
2019-04-01T16:57:10.747Z,19.23
2019-04-01T16:59:41.510Z,18.93
2019-04-01T17:02:17.803Z,18.90
2019-04-01T17:04:46.167Z,18.71
2019-04-01T17:07:19.455Z,18.54
2019-04-01T17:09:49.052Z,18.39
2019-04-01T17:12:19.743Z,18.17
2019-04-01T17:14:50.057Z,18.02
2019-04-01T17:17:20.822Z,16.27
2019-04-01T17:19:51.234Z,17.80
2019-04-01T17:22:21.527Z,17.74
2019-04-01T17:24:52.188Z,17.64
2019-04-01T17:27:22.831Z,17.33
2019-04-01T17:29:53.543Z,17.32
2019-04-01T17:32:23.889Z,17.32
2019-04-01T17:34:54.617Z,17.18
2019-04-01T17:37:24.945Z,17.10
2019-04-01T17:39:55.725Z,17.00
2019-04-01T17:42:26.040Z,16.96
2019-04-01T17:44:59.038Z,16.92
2019-04-01T17:47:29.632Z,16.81
2019-04-01T17:50:00.267Z,16.67
2019-04-01T17:52:30.867Z,16.56
2019-04-01T17:55:01.515Z,16.42
2019-04-01T17:57:31.838Z,15.74
2019-04-01T18:00:02.290Z,15.69
2019-04-01T18:02:33.199Z,15.50
2019-04-01T18:05:04.162Z,15.34
2019-04-01T18:07:36.083Z,15.03
2019-04-01T18:10:07.165Z,15.12
2019-04-01T18:12:40.497Z,15.32
2019-04-01T18:15:11.346Z,15.16
2019-04-01T18:17:41.712Z,15.12
2019-04-01T18:20:12.357Z,15.12
2019-04-01T18:22:43.157Z,15.33
2019-04-01T18:25:14.201Z,15.23
2019-04-01T18:27:44.654Z,14.24
2019-04-01T18:30:15.912Z,13.99
2019-04-01T18:32:46.605Z,14.35
2019-04-01T18:35:17.210Z,13.91
2019-04-01T18:37:48.329Z,13.81
2019-04-01T18:40:32.029Z,13.46
2019-04-01T18:42:52.347Z,13.22
2019-04-01T18:45:22.952Z,13.32
2019-04-01T18:47:53.233Z,12.77
2019-04-01T18:50:23.942Z,13.19
2019-04-01T18:52:54.426Z,13.08
2019-04-01T18:55:25.096Z,13.22
2019-04-01T18:57:56.527Z,13.06
2019-04-01T19:00:27.381Z,13.05
2019-04-01T19:02:57.678Z,13.16
2019-04-01T19:05:28.160Z,12.95
2019-04-01T19:07:58.938Z,12.50
2019-04-01T19:10:29.473Z,12.33
2019-04-01T19:13:06.156Z,12.22
2019-04-01T19:15:32.833Z,12.32
2019-04-01T19:18:04.237Z,12.34
2019-04-01T19:20:34.868Z,12.20
2019-04-01T19:23:05.166Z,12.50
2019-04-01T19:25:35.920Z,12.48
2019-04-01T19:28:06.629Z,12.57
2019-04-01T19:30:37.051Z,12.63
2019-04-01T19:33:08.911Z,12.30
2019-04-01T19:35:40.045Z,12.35
2019-04-01T19:38:10.367Z,12.25
2019-04-01T19:40:40.764Z,12.31
2019-04-01T19:43:11.371Z,12.17
2019-04-01T19:45:42.103Z,12.27
2019-04-01T19:48:12.493Z,12.32
2019-04-01T19:50:42.825Z,12.42
2019-04-01T19:53:13.133Z,12.20
2019-04-01T19:55:44.036Z,12.28
2019-04-01T19:58:14.377Z,12.26
2019-04-01T20:00:44.958Z,12.25
2019-04-01T20:03:15.513Z,12.16
2019-04-01T20:05:46.048Z,12.24
2019-04-01T20:08:16.648Z,12.18
2019-04-01T20:10:47.453Z,12.27
2019-04-01T20:13:18.247Z,12.14
2019-04-01T20:15:48.748Z,12.25
2019-04-01T20:18:19.470Z,12.38
2019-04-01T20:20:50.064Z,12.40
2019-04-01T20:23:20.532Z,12.38
2019-04-01T20:25:51.281Z,12.50
2019-04-01T20:28:21.576Z,12.59
2019-04-01T20:30:52.616Z,12.59
2019-04-01T20:33:23.297Z,12.66
2019-04-01T20:35:54.632Z,12.68
2019-04-01T20:38:27.174Z,12.78
2019-04-01T20:40:57.945Z,12.87
2019-04-01T20:43:28.247Z,12.92
2019-04-01T20:45:58.769Z,12.97
2019-04-01T20:48:29.453Z,13.04
2019-04-01T20:50:59.778Z,12.94
2019-04-01T20:53:30.166Z,12.90
2019-04-01T20:56:00.945Z,12.93
2019-04-01T20:58:31.374Z,12.79
2019-04-01T21:01:01.800Z,12.79
2019-04-01T21:03:32.631Z,12.90
2019-04-01T21:06:03.175Z,12.82
2019-04-01T21:08:33.543Z,12.75
2019-04-01T21:11:04.484Z,12.89
2019-04-01T21:13:35.512Z,12.77
2019-04-01T21:16:05.868Z,12.84
2019-04-01T21:18:36.542Z,12.91
2019-04-01T21:21:06.948Z,13.01
2019-04-01T21:23:37.234Z,13.07
2019-04-01T21:26:07.797Z,13.10
2019-04-01T21:28:38.078Z,13.00
2019-04-01T21:31:08.820Z,13.18
2019-04-01T21:33:39.612Z,13.11
2019-04-01T21:36:09.935Z,13.10
2019-04-01T21:38:40.618Z,13.06
2019-04-01T21:41:11.312Z,13.11
2019-04-01T21:43:41.605Z,13.08
2019-04-01T21:46:12.108Z,13.34
2019-04-01T21:48:42.784Z,13.23
2019-04-01T21:51:13.114Z,13.27
2019-04-01T21:53:43.488Z,13.26
2019-04-01T21:56:14.045Z,13.24
2019-04-01T21:58:44.703Z,12.91
2019-04-01T22:01:16.775Z,13.17
2019-04-01T22:03:48.098Z,13.18
2019-04-01T22:06:18.998Z,13.09
2019-04-01T22:08:49.589Z,13.06
2019-04-01T22:11:19.994Z,13.11
2019-04-01T22:13:50.290Z,13.11
2019-04-01T22:16:20.730Z,13.08
2019-04-01T22:18:50.990Z,12.91
2019-04-01T22:21:21.299Z,13.05
2019-04-01T22:23:51.950Z,13.08
2019-04-01T22:26:22.647Z,13.12
2019-04-01T22:28:53.205Z,12.98
2019-04-01T22:31:23.817Z,13.02
2019-04-01T22:33:54.103Z,12.97
2019-04-01T22:36:31.055Z,13.25
2019-04-01T22:38:56.792Z,13.16
2019-04-01T22:41:29.184Z,13.13
2019-04-01T22:43:59.460Z,13.14
2019-04-01T22:46:29.814Z,13.22
2019-04-01T22:49:00.096Z,13.21
2019-04-01T22:51:30.785Z,13.25
2019-04-01T22:54:02.267Z,13.10
2019-04-01T22:56:32.989Z,12.81
2019-04-01T22:59:03.765Z,12.61
2019-04-01T23:01:34.371Z,12.46
2019-04-01T23:04:05.042Z,12.05
2019-04-01T23:06:35.839Z,11.85
2019-04-01T23:09:07.939Z,11.31
2019-04-01T23:11:38.766Z,11.32
2019-04-01T23:14:09.498Z,11.05
2019-04-01T23:16:41.215Z,11.06
2019-04-01T23:19:11.615Z,10.94
2019-04-01T23:21:42.272Z,10.90
2019-04-01T23:24:12.640Z,11.03
2019-04-01T23:26:43.470Z,10.85
2019-04-01T23:29:14.550Z,10.64
2019-04-01T23:31:44.941Z,10.62
2019-04-01T23:34:15.500Z,10.40
2019-04-01T23:36:45.831Z,10.49
2019-04-01T23:39:16.448Z,10.42
2019-04-01T23:41:46.982Z,10.31
2019-04-01T23:44:17.429Z,10.22
2019-04-01T23:46:48.963Z,10.11
2019-04-01T23:49:19.381Z,9.93
2019-04-01T23:51:49.867Z,9.54
2019-04-01T23:54:20.205Z,9.43
2019-04-01T23:56:50.978Z,9.15
2019-04-01T23:59:21.295Z,9.19
